createdAt,value
2023-03-29T00:00:33.639Z,547.00
2023-03-29T00:01:35.476Z,550.00
2023-03-29T00:02:33.804Z,544.00
2023-03-29T00:05:33.608Z,544.00
2023-03-29T00:07:33.624Z,544.00
2023-03-29T00:09:33.672Z,548.00
2023-03-29T00:10:33.643Z,553.00
2023-03-29T00:11:33.601Z,557.00
2023-03-29T00:13:33.614Z,552.00
2023-03-29T00:14:33.611Z,558.00
2023-03-29T00:16:33.628Z,554.00
2023-03-29T00:17:33.593Z,551.00
2023-03-29T00:18:33.573Z,549.00
2023-03-29T00:20:33.580Z,558.00
2023-03-29T00:21:33.579Z,559.00
2023-03-29T00:22:33.580Z,549.00
2023-03-29T00:27:33.574Z,543.00
2023-03-29T00:29:33.565Z,539.00
2023-03-29T00:30:33.568Z,533.00
2023-03-29T00:31:33.609Z,535.00
2023-03-29T00:32:33.594Z,536.00
2023-03-29T00:34:33.551Z,541.00
2023-03-29T00:38:33.531Z,542.00
2023-03-29T00:39:33.528Z,542.00
2023-03-29T00:40:33.512Z,542.00
2023-03-29T00:41:33.521Z,544.00
2023-03-29T00:43:33.471Z,539.00
2023-03-29T00:45:33.453Z,541.00
2023-03-29T00:46:33.494Z,531.00
2023-03-29T00:47:33.487Z,526.00
2023-03-29T00:48:33.456Z,518.00
2023-03-29T00:49:33.437Z,516.00
2023-03-29T00:50:33.439Z,519.00
2023-03-29T00:53:33.434Z,520.00
2023-03-29T00:54:33.395Z,519.00
2023-03-29T00:55:33.399Z,518.00
2023-03-29T00:56:33.384Z,523.00
2023-03-29T01:00:33.346Z,527.00
2023-03-29T01:02:33.431Z,518.00
2023-03-29T01:04:33.325Z,518.00
2023-03-29T01:05:33.312Z,511.00
2023-03-29T01:06:33.326Z,516.00
2023-03-29T01:07:33.307Z,525.00
2023-03-29T01:08:33.329Z,521.00
2023-03-29T01:09:33.324Z,521.00
2023-03-29T01:10:33.312Z,524.00
2023-03-29T01:11:33.335Z,518.00
2023-03-29T01:12:33.297Z,521.00
2023-03-29T01:13:33.297Z,527.00
2023-03-29T01:14:33.300Z,518.00
2023-03-29T01:15:33.327Z,527.00
2023-03-29T01:16:33.340Z,520.00
2023-03-29T01:17:33.346Z,531.00
2023-03-29T01:19:33.285Z,520.00
2023-03-29T01:20:33.319Z,521.00
2023-03-29T01:21:33.301Z,525.00
2023-03-29T01:22:33.316Z,523.00
2023-03-29T01:25:33.312Z,521.00
2023-03-29T01:26:33.338Z,522.00
2023-03-29T01:27:33.359Z,523.00
2023-03-29T01:30:33.354Z,516.00
2023-03-29T01:31:33.360Z,518.00
2023-03-29T01:32:33.385Z,525.00
2023-03-29T01:34:33.363Z,523.00
2023-03-29T01:35:33.399Z,521.00
2023-03-29T01:36:33.412Z,517.00
2023-03-29T01:37:33.400Z,521.00
2023-03-29T01:38:33.381Z,519.00
2023-03-29T01:41:33.399Z,519.00
2023-03-29T01:42:33.414Z,529.00
2023-03-29T01:43:33.413Z,522.00
2023-03-29T01:44:33.417Z,519.00
2023-03-29T01:45:33.435Z,515.00
2023-03-29T01:46:33.478Z,528.00
2023-03-29T01:47:33.528Z,529.00
2023-03-29T01:48:33.440Z,521.00
2023-03-29T01:49:33.446Z,518.00
2023-03-29T01:50:33.457Z,532.00
2023-03-29T01:51:33.457Z,536.00
2023-03-29T01:52:33.476Z,524.00
2023-03-29T01:54:33.457Z,525.00
2023-03-29T01:57:33.471Z,534.00
2023-03-29T01:58:33.475Z,532.00
2023-03-29T01:59:33.488Z,534.00
2023-03-29T02:03:33.603Z,529.00
2023-03-29T02:04:33.489Z,538.00
2023-03-29T02:05:33.488Z,534.00
2023-03-29T02:07:33.498Z,521.00
2023-03-29T02:08:33.547Z,517.00
2023-03-29T02:09:33.483Z,529.00
2023-03-29T02:10:33.510Z,528.00
2023-03-29T02:14:33.502Z,526.00
2023-03-29T02:15:33.561Z,513.00
2023-03-29T02:16:33.515Z,516.00
2023-03-29T02:17:33.536Z,513.00
2023-03-29T02:18:33.540Z,516.00
2023-03-29T02:19:33.533Z,520.00
2023-03-29T02:20:33.541Z,515.00
2023-03-29T02:21:33.549Z,513.00
2023-03-29T02:22:33.563Z,514.00
2023-03-29T02:23:33.565Z,504.00
2023-03-29T02:25:33.550Z,512.00
2023-03-29T02:26:33.548Z,514.00
2023-03-29T02:30:33.569Z,506.00
2023-03-29T02:33:33.562Z,519.00
2023-03-29T02:34:33.563Z,522.00
2023-03-29T02:35:33.584Z,517.00
2023-03-29T02:36:33.581Z,516.00
2023-03-29T02:37:33.584Z,509.00
2023-03-29T02:38:33.593Z,513.00
2023-03-29T02:42:33.578Z,502.00
2023-03-29T02:44:33.593Z,464.00
2023-03-29T02:45:33.602Z,400.00
2023-03-29T02:46:33.633Z,400.00
2023-03-29T02:47:33.657Z,400.00
2023-03-29T02:48:33.673Z,400.00
2023-03-29T02:50:33.691Z,400.00
2023-03-29T02:51:33.732Z,401.00
2023-03-29T02:52:33.751Z,419.00
2023-03-29T02:53:33.773Z,434.00
2023-03-29T02:54:33.789Z,405.00
2023-03-29T02:55:33.807Z,400.00
2023-03-29T02:56:33.891Z,400.00
2023-03-29T02:57:33.860Z,400.00
2023-03-29T02:58:33.889Z,400.00
2023-03-29T03:02:34.105Z,400.00
2023-03-29T03:03:34.144Z,400.00
2023-03-29T03:04:34.034Z,400.00
2023-03-29T03:05:34.070Z,400.00
2023-03-29T03:06:34.113Z,400.00
2023-03-29T03:07:34.123Z,400.00
2023-03-29T03:08:34.170Z,400.00
2023-03-29T03:09:34.173Z,426.00
2023-03-29T03:10:34.253Z,468.00
2023-03-29T03:11:34.246Z,459.00
2023-03-29T03:12:34.260Z,450.00
2023-03-29T03:13:34.306Z,442.00
2023-03-29T03:14:34.339Z,430.00
2023-03-29T03:17:34.478Z,503.00
2023-03-29T03:18:34.435Z,505.00
2023-03-29T03:19:34.433Z,504.00
2023-03-29T03:20:34.452Z,507.00
2023-03-29T03:21:34.470Z,512.00
2023-03-29T03:22:34.494Z,519.00
2023-03-29T03:23:34.529Z,532.00
2023-03-29T03:24:34.555Z,529.00
2023-03-29T03:25:34.584Z,530.00
2023-03-29T03:26:34.613Z,531.00
2023-03-29T03:27:34.618Z,527.00
2023-03-29T03:28:34.661Z,530.00
2023-03-29T03:29:34.669Z,530.00
2023-03-29T03:30:34.758Z,536.00
2023-03-29T03:31:34.743Z,539.00
2023-03-29T03:32:34.748Z,535.00
2023-03-29T03:33:34.782Z,529.00
2023-03-29T03:34:34.772Z,523.00
2023-03-29T03:35:34.848Z,514.00
2023-03-29T03:36:34.869Z,506.00
2023-03-29T03:37:34.857Z,500.00
2023-03-29T03:38:34.905Z,500.00
2023-03-29T03:39:34.908Z,508.00
2023-03-29T03:40:34.986Z,500.00
2023-03-29T03:41:34.967Z,504.00
2023-03-29T03:42:34.994Z,500.00
2023-03-29T03:43:35.067Z,502.00
2023-03-29T03:46:35.081Z,500.00
2023-03-29T03:49:35.151Z,501.00
2023-03-29T03:50:35.172Z,500.00
2023-03-29T03:51:35.177Z,500.00
2023-03-29T03:52:35.193Z,502.00
2023-03-29T03:53:35.235Z,501.00
2023-03-29T03:54:35.247Z,501.00
2023-03-29T03:55:35.286Z,510.00
2023-03-29T03:56:35.310Z,506.00
2023-03-29T03:57:35.325Z,500.00
2023-03-29T03:58:35.361Z,503.00
2023-03-29T03:59:35.375Z,500.00
2023-03-29T04:00:35.414Z,501.00
2023-03-29T04:01:35.527Z,500.00
2023-03-29T04:02:35.522Z,500.00
2023-03-29T04:05:35.521Z,514.00
2023-03-29T04:06:35.562Z,505.00
2023-03-29T04:07:35.566Z,500.00
2023-03-29T04:08:35.630Z,501.00
2023-03-29T04:09:35.640Z,502.00
2023-03-29T04:11:35.679Z,501.00
2023-03-29T04:12:35.714Z,500.00
2023-03-29T04:13:35.798Z,500.00
2023-03-29T04:14:35.814Z,503.00
2023-03-29T04:15:35.804Z,502.00
2023-03-29T04:16:35.822Z,500.00
2023-03-29T04:17:38.732Z,500.00
2023-03-29T04:18:35.936Z,500.00
2023-03-29T04:19:35.907Z,516.00
2023-03-29T04:20:35.964Z,540.00
2023-03-29T04:21:35.953Z,563.00
2023-03-29T04:22:35.979Z,603.00
2023-03-29T04:23:35.980Z,668.00
2023-03-29T04:24:36.069Z,810.00
2023-03-29T04:28:36.068Z,1325.00
2023-03-29T04:29:36.080Z,1346.00
2023-03-29T04:30:36.061Z,1361.00
2023-03-29T04:31:36.113Z,1389.00
2023-03-29T04:32:36.150Z,1381.00
2023-03-29T04:33:36.101Z,1373.00
2023-03-29T04:34:36.157Z,1351.00
2023-03-29T04:35:36.213Z,1352.00
2023-03-29T04:37:36.183Z,1401.00
2023-03-29T04:38:36.215Z,1310.00
2023-03-29T04:39:36.231Z,1279.00
2023-03-29T04:40:36.214Z,1221.00
2023-03-29T04:41:36.256Z,1221.00
2023-03-29T04:42:36.251Z,1203.00
2023-03-29T04:43:37.854Z,1202.00
2023-03-29T04:44:36.305Z,1191.00
2023-03-29T04:45:36.287Z,1172.00
2023-03-29T04:46:36.332Z,1217.00
2023-03-29T04:47:36.408Z,1252.00
2023-03-29T04:48:36.337Z,1183.00
2023-03-29T04:49:36.351Z,1027.00
2023-03-29T04:50:36.379Z,959.00
2023-03-29T04:53:36.422Z,767.00
2023-03-29T04:54:36.421Z,844.00
2023-03-29T04:55:36.448Z,799.00
2023-03-29T04:56:36.456Z,793.00
2023-03-29T04:57:36.457Z,687.00
2023-03-29T04:58:36.486Z,637.00
2023-03-29T04:59:36.512Z,589.00
2023-03-29T05:00:36.554Z,576.00
2023-03-29T05:01:36.594Z,583.00
2023-03-29T05:02:36.643Z,572.00
2023-03-29T05:03:36.640Z,557.00
2023-03-29T05:04:36.700Z,581.00
2023-03-29T05:05:36.705Z,591.00
2023-03-29T05:06:36.733Z,610.00
2023-03-29T05:07:36.743Z,621.00
2023-03-29T05:08:36.774Z,625.00
2023-03-29T05:09:36.844Z,634.00
2023-03-29T05:10:36.860Z,643.00
2023-03-29T05:11:36.882Z,645.00
2023-03-29T05:12:36.963Z,652.00
2023-03-29T05:13:36.943Z,680.00
2023-03-29T05:14:36.961Z,762.00
2023-03-29T05:15:37.430Z,910.00
2023-03-29T05:16:37.077Z,1007.00
2023-03-29T05:17:37.125Z,1052.00
2023-03-29T05:18:37.046Z,1104.00
2023-03-29T05:19:37.059Z,1144.00
2023-03-29T05:20:37.120Z,1190.00
2023-03-29T05:21:37.114Z,1262.00
2023-03-29T05:25:37.194Z,1370.00
2023-03-29T05:26:37.209Z,1458.00
2023-03-29T05:27:37.235Z,1612.00
2023-03-29T05:28:37.254Z,1677.00
2023-03-29T05:29:37.260Z,1731.00
2023-03-29T05:30:37.312Z,1809.00
2023-03-29T05:31:37.348Z,1867.00
2023-03-29T05:32:37.353Z,1933.00
2023-03-29T05:33:37.365Z,1967.00
2023-03-29T05:34:37.368Z,2046.00
2023-03-29T05:35:37.442Z,2183.00
2023-03-29T05:36:37.393Z,2288.00
2023-03-29T05:37:37.412Z,2417.00
2023-03-29T05:39:37.827Z,2591.00
2023-03-29T05:40:37.447Z,2732.00
2023-03-29T05:41:37.463Z,2768.00
2023-03-29T05:42:37.471Z,2821.00
2023-03-29T05:43:37.479Z,2892.00
2023-03-29T05:44:37.552Z,2928.00
2023-03-29T05:45:37.532Z,3009.00
2023-03-29T05:46:37.598Z,3045.00
2023-03-29T05:48:37.589Z,3235.00
2023-03-29T05:49:37.772Z,3317.00
2023-03-29T05:51:37.599Z,3416.00
2023-03-29T05:52:37.533Z,3499.00
2023-03-29T05:53:37.557Z,3547.00
2023-03-29T05:56:37.634Z,3659.00
2023-03-29T05:57:37.583Z,3679.00
2023-03-29T05:58:37.572Z,3669.00
2023-03-29T06:00:37.589Z,3677.00
2023-03-29T06:03:37.827Z,3669.00
2023-03-29T06:04:37.830Z,3651.00
2023-03-29T06:05:37.593Z,3491.00
2023-03-29T06:06:37.630Z,3189.00
2023-03-29T06:07:37.656Z,2945.00
2023-03-29T06:08:37.687Z,2794.00
2023-03-29T06:09:37.807Z,2741.00
2023-03-29T06:10:37.700Z,2600.00
2023-03-29T06:11:37.881Z,2383.00
2023-03-29T06:14:37.886Z,1972.00
2023-03-29T06:15:37.900Z,1824.00
2023-03-29T06:16:39.096Z,1737.00
2023-03-29T06:17:38.030Z,1651.00
2023-03-29T06:18:38.146Z,1584.00
2023-03-29T06:19:38.060Z,1567.00
2023-03-29T06:20:38.146Z,1517.00
2023-03-29T06:21:38.177Z,1475.00
2023-03-29T06:22:38.247Z,1422.00
2023-03-29T06:23:38.260Z,1451.00
2023-03-29T06:24:38.296Z,1344.00
2023-03-29T06:25:38.336Z,1292.00
2023-03-29T06:26:38.376Z,1204.00
2023-03-29T06:27:38.422Z,1140.00
2023-03-29T06:28:38.499Z,1125.00
2023-03-29T06:29:38.492Z,1161.00
2023-03-29T06:30:38.541Z,1328.00
2023-03-29T06:31:38.676Z,1519.00
2023-03-29T06:33:38.622Z,1869.00
2023-03-29T06:34:38.701Z,2019.00
2023-03-29T06:35:38.732Z,2204.00
2023-03-29T06:36:38.689Z,2435.00
2023-03-29T06:37:38.694Z,2577.00
2023-03-29T06:38:38.696Z,2629.00
2023-03-29T06:39:38.711Z,2672.00
2023-03-29T06:40:38.743Z,2779.00
2023-03-29T06:41:38.773Z,2850.00
2023-03-29T06:42:38.753Z,2985.00
2023-03-29T06:43:38.792Z,3046.00
2023-03-29T06:45:38.810Z,3214.00
2023-03-29T06:46:38.798Z,3310.00
2023-03-29T06:47:38.824Z,3360.00
2023-03-29T06:48:38.798Z,3390.00
2023-03-29T06:50:38.805Z,3562.00
2023-03-29T06:52:38.792Z,3650.00
2023-03-29T06:53:38.825Z,3653.00
2023-03-29T06:54:38.765Z,3661.00
2023-03-29T06:58:38.754Z,3868.00
2023-03-29T06:59:38.770Z,3926.00
2023-03-29T07:00:38.771Z,3954.00
2023-03-29T07:01:38.807Z,3955.00
2023-03-29T07:02:38.801Z,3991.00
2023-03-29T07:03:38.816Z,3995.00
2023-03-29T07:04:38.851Z,4000.00
2023-03-29T07:06:38.728Z,4022.00
2023-03-29T07:08:38.714Z,4037.00
2023-03-29T07:11:38.660Z,4102.00
2023-03-29T07:12:38.663Z,4118.00
2023-03-29T07:13:38.648Z,4147.00
2023-03-29T07:17:38.589Z,4228.00
2023-03-29T07:18:38.614Z,4222.00
2023-03-29T07:19:38.606Z,4230.00
2023-03-29T07:21:38.558Z,4263.00
2023-03-29T07:22:38.568Z,4252.00
2023-03-29T07:23:38.529Z,4257.00
2023-03-29T07:24:38.534Z,4260.00
2023-03-29T07:28:38.497Z,4169.00
2023-03-29T07:29:38.529Z,4158.00
2023-03-29T07:32:38.632Z,4090.00
2023-03-29T07:33:38.632Z,4105.00
2023-03-29T07:35:38.501Z,4053.00
2023-03-29T07:36:38.443Z,4034.00
2023-03-29T07:37:38.458Z,4004.00
2023-03-29T07:38:38.418Z,3917.00
2023-03-29T07:39:38.431Z,3898.00
2023-03-29T07:40:38.433Z,3879.00
2023-03-29T07:42:38.408Z,3292.00
2023-03-29T07:43:38.390Z,3124.00
2023-03-29T07:47:38.421Z,2975.00
2023-03-29T07:48:38.472Z,2896.00
2023-03-29T07:50:38.396Z,2806.00
2023-03-29T07:51:38.439Z,2702.00
2023-03-29T07:53:38.419Z,2496.00
2023-03-29T07:54:38.516Z,2460.00
2023-03-29T08:00:38.574Z,2362.00
2023-03-29T08:01:38.432Z,2364.00
2023-03-29T08:02:38.461Z,2385.00
2023-03-29T08:03:38.514Z,2448.00
2023-03-29T08:04:38.461Z,2539.00
2023-03-29T08:05:41.746Z,2620.00
2023-03-29T08:10:38.366Z,2790.00
2023-03-29T08:11:38.324Z,2884.00
2023-03-29T08:12:38.325Z,2979.00
2023-03-29T08:13:38.335Z,3031.00
2023-03-29T08:15:38.350Z,3230.00
2023-03-29T08:17:38.291Z,3236.00
2023-03-29T08:21:38.298Z,3243.00
2023-03-29T08:22:38.318Z,3313.00
2023-03-29T08:23:38.215Z,3239.00
2023-03-29T08:24:38.304Z,3194.00
2023-03-29T08:25:38.179Z,3142.00
2023-03-29T08:27:38.164Z,3155.00
2023-03-29T08:28:38.195Z,3118.00
2023-03-29T08:31:38.190Z,3243.00
2023-03-29T08:32:38.140Z,3142.00
2023-03-29T08:33:38.103Z,3003.00
2023-03-29T08:34:38.083Z,2942.00
2023-03-29T08:36:38.083Z,2714.00
2023-03-29T08:37:38.088Z,2587.00
2023-03-29T08:38:38.165Z,2512.00
2023-03-29T08:42:38.022Z,2326.00
2023-03-29T08:43:38.030Z,2237.00
2023-03-29T08:44:38.044Z,2278.00
2023-03-29T08:45:38.031Z,2278.00
2023-03-29T08:46:38.042Z,2261.00
2023-03-29T08:47:38.090Z,2230.00
2023-03-29T08:48:38.064Z,2052.00
2023-03-29T08:49:38.094Z,1960.00
2023-03-29T08:50:38.231Z,1961.00
2023-03-29T08:51:38.107Z,1692.00
2023-03-29T08:52:38.138Z,1697.00
2023-03-29T08:53:38.301Z,1730.00
2023-03-29T08:54:38.063Z,1845.00
2023-03-29T08:55:38.071Z,2007.00
2023-03-29T08:56:38.164Z,2310.00
2023-03-29T08:59:38.069Z,2665.00
2023-03-29T09:02:38.143Z,2946.00
2023-03-29T09:03:38.258Z,3043.00
2023-03-29T09:04:38.054Z,3099.00
2023-03-29T09:05:38.056Z,3154.00
2023-03-29T09:10:38.004Z,3421.00
2023-03-29T09:11:37.999Z,3461.00
2023-03-29T09:12:38.076Z,3501.00
2023-03-29T09:15:37.963Z,3535.00
2023-03-29T09:16:38.032Z,3588.00
2023-03-29T09:17:38.032Z,3642.00
2023-03-29T09:18:37.998Z,3675.00
2023-03-29T09:19:37.960Z,3663.00
2023-03-29T09:25:50.890Z,3781.00
2023-03-29T09:26:38.856Z,3705.00
2023-03-29T09:27:38.015Z,3718.00
2023-03-29T09:30:37.810Z,3840.00
2023-03-29T09:31:38.897Z,3827.00
2023-03-29T09:35:37.802Z,3873.00
2023-03-29T09:37:37.898Z,3921.00
2023-03-29T09:38:37.728Z,3960.00
2023-03-29T09:39:37.742Z,3984.00
2023-03-29T09:42:37.719Z,3999.00
2023-03-29T09:43:37.753Z,3982.00
2023-03-29T09:46:37.619Z,4090.00
2023-03-29T09:47:37.684Z,4056.00
2023-03-29T09:48:37.585Z,4064.00
2023-03-29T09:49:37.588Z,4062.00
2023-03-29T09:50:37.560Z,4063.00
2023-03-29T09:53:37.516Z,4058.00
2023-03-29T09:57:37.599Z,3916.00
2023-03-29T09:58:37.456Z,3926.00
2023-03-29T09:59:37.489Z,3894.00
2023-03-29T10:03:37.412Z,3785.00
2023-03-29T10:05:37.353Z,3766.00
2023-03-29T10:06:37.365Z,3718.00
2023-03-29T10:07:37.342Z,3697.00
2023-03-29T10:08:37.340Z,3707.00
2023-03-29T10:09:37.349Z,3709.00
2023-03-29T10:10:37.313Z,3680.00
2023-03-29T10:16:37.305Z,3564.00
2023-03-29T10:17:37.249Z,3541.00
2023-03-29T10:18:37.232Z,3517.00
2023-03-29T10:19:37.271Z,3500.00
2023-03-29T10:21:37.184Z,3460.00
2023-03-29T10:22:37.248Z,3462.00
2023-03-29T10:23:37.195Z,3451.00
2023-03-29T10:24:37.158Z,3484.00
2023-03-29T10:25:37.185Z,3474.00
2023-03-29T10:28:37.094Z,3467.00
2023-03-29T10:29:37.118Z,3470.00
2023-03-29T10:31:37.123Z,3473.00
2023-03-29T10:32:37.088Z,3486.00
2023-03-29T10:33:37.034Z,3451.00
2023-03-29T10:34:37.038Z,3441.00
2023-03-29T10:36:37.000Z,3414.00
2023-03-29T10:40:36.934Z,3450.00
2023-03-29T10:41:36.980Z,3442.00
2023-03-29T10:43:36.870Z,3480.00
2023-03-29T10:44:36.910Z,3482.00
2023-03-29T10:46:36.977Z,3511.00
2023-03-29T10:47:36.879Z,3505.00
2023-03-29T10:49:36.783Z,3504.00
2023-03-29T10:50:36.847Z,3503.00
2023-03-29T10:53:36.746Z,3510.00
2023-03-29T10:54:36.787Z,3522.00
2023-03-29T10:55:36.772Z,3491.00
2023-03-29T10:56:36.729Z,3518.00
2023-03-29T10:57:36.887Z,3521.00
2023-03-29T10:59:36.746Z,3517.00
2023-03-29T11:00:36.692Z,3519.00
2023-03-29T11:04:36.636Z,3498.00
2023-03-29T11:05:36.664Z,3473.00
2023-03-29T11:07:36.658Z,3507.00
2023-03-29T11:09:36.624Z,3467.00
2023-03-29T11:11:36.550Z,3460.00
2023-03-29T11:12:36.577Z,3447.00
2023-03-29T11:15:36.596Z,3356.00
2023-03-29T11:20:36.493Z,3014.00
2023-03-29T11:21:36.478Z,2958.00
2023-03-29T11:22:36.482Z,2930.00
2023-03-29T11:23:36.505Z,2877.00
2023-03-29T11:25:36.486Z,2823.00
2023-03-29T11:28:36.457Z,2701.00
2023-03-29T11:29:36.567Z,2742.00
2023-03-29T11:31:38.544Z,2829.00
2023-03-29T11:32:36.504Z,2831.00
2023-03-29T11:34:37.136Z,2833.00
2023-03-29T11:37:36.363Z,2947.00
2023-03-29T11:39:36.353Z,3068.00
2023-03-29T11:41:36.337Z,3120.00
2023-03-29T11:43:36.311Z,3155.00
2023-03-29T11:44:36.286Z,3159.00
2023-03-29T11:45:36.275Z,3156.00
2023-03-29T11:46:36.294Z,3157.00
2023-03-29T11:49:36.259Z,3182.00
2023-03-29T11:50:36.830Z,3172.00
2023-03-29T11:52:36.235Z,3152.00
2023-03-29T11:54:36.165Z,3113.00
2023-03-29T11:55:36.188Z,3122.00
2023-03-29T11:56:36.125Z,3139.00
2023-03-29T12:02:36.156Z,3022.00
2023-03-29T12:03:36.171Z,2993.00
2023-03-29T12:04:36.073Z,3006.00
2023-03-29T12:06:36.072Z,2998.00
2023-03-29T12:07:36.107Z,2988.00
2023-03-29T12:09:36.024Z,2961.00
2023-03-29T12:14:35.941Z,2931.00
2023-03-29T12:15:35.999Z,2902.00
2023-03-29T12:16:35.969Z,2909.00
2023-03-29T12:17:35.920Z,2924.00
2023-03-29T12:21:35.861Z,2896.00
2023-03-29T12:22:35.827Z,2864.00
2023-03-29T12:25:35.803Z,2853.00
2023-03-29T12:27:35.763Z,2878.00
2023-03-29T12:28:35.739Z,2891.00
2023-03-29T12:29:35.751Z,2886.00
2023-03-29T12:32:35.761Z,2970.00
2023-03-29T12:35:35.670Z,2985.00
2023-03-29T12:37:35.621Z,3119.00
2023-03-29T12:38:35.609Z,3180.00
2023-03-29T12:39:35.684Z,3231.00
2023-03-29T12:41:35.601Z,3324.00
2023-03-29T12:43:35.596Z,3414.00
2023-03-29T12:45:35.496Z,3462.00
2023-03-29T12:46:35.549Z,3474.00
2023-03-29T12:47:35.499Z,3500.00
2023-03-29T12:48:35.424Z,3562.00
2023-03-29T12:49:35.400Z,3668.00
2023-03-29T12:50:35.394Z,3467.00
2023-03-29T12:51:35.444Z,3498.00
2023-03-29T12:52:35.366Z,3579.00
2023-03-29T12:55:09.761Z,500.00
2023-03-29T12:57:15.501Z,500.00
2023-03-29T12:58:15.342Z,500.00
2023-03-29T12:59:15.315Z,500.00
2023-03-29T13:00:15.297Z,500.00
2023-03-29T13:01:15.347Z,500.00
2023-03-29T13:02:15.419Z,535.00
2023-03-29T13:03:15.226Z,501.00
2023-03-29T13:04:15.174Z,502.00
2023-03-29T13:05:15.229Z,500.00
2023-03-29T13:06:15.128Z,507.00
2023-03-29T13:07:15.124Z,500.00
2023-03-29T13:08:15.068Z,503.00
2023-03-29T13:09:15.047Z,507.00
2023-03-29T13:10:15.014Z,510.00
2023-03-29T13:11:15.012Z,512.00
2023-03-29T13:12:14.986Z,515.00
2023-03-29T13:13:14.946Z,512.00
2023-03-29T13:14:14.899Z,499.00
2023-03-29T13:15:14.866Z,454.00
2023-03-29T13:16:14.895Z,427.00
2023-03-29T13:17:18.704Z,400.00
2023-03-29T13:18:14.866Z,400.00
2023-03-29T13:19:14.766Z,400.00
2023-03-29T13:20:14.781Z,400.00
2023-03-29T13:21:14.714Z,400.00
2023-03-29T13:22:14.709Z,400.00
2023-03-29T13:23:17.030Z,400.00
2023-03-29T13:24:14.661Z,400.00
2023-03-29T13:25:14.661Z,400.00
2023-03-29T13:26:14.608Z,400.00
2023-03-29T13:27:14.595Z,400.00
2023-03-29T13:28:14.592Z,400.00
2023-03-29T13:29:14.559Z,400.00
2023-03-29T13:30:14.580Z,400.00
2023-03-29T13:31:14.715Z,400.00
2023-03-29T13:32:14.631Z,400.00
2023-03-29T13:33:14.557Z,400.00
2023-03-29T13:34:14.519Z,400.00
2023-03-29T13:35:14.526Z,400.00
2023-03-29T13:36:14.587Z,400.00
2023-03-29T13:37:14.478Z,400.00
2023-03-29T13:38:14.444Z,400.00
2023-03-29T13:39:14.446Z,400.00
2023-03-29T13:40:14.457Z,407.00
2023-03-29T13:41:14.364Z,445.00
2023-03-29T13:42:14.362Z,522.00
2023-03-29T13:43:14.308Z,548.00
2023-03-29T13:44:14.281Z,584.00
2023-03-29T13:45:14.275Z,620.00
2023-03-29T13:46:14.323Z,641.00
2023-03-29T13:47:14.337Z,680.00
2023-03-29T13:48:14.406Z,794.00
2023-03-29T13:49:14.416Z,868.00
2023-03-29T13:50:14.407Z,945.00
2023-03-29T13:51:14.413Z,1019.00
2023-03-29T13:52:14.427Z,1060.00
2023-03-29T13:53:14.375Z,1064.00
2023-03-29T13:54:14.342Z,1081.00
2023-03-29T13:55:14.339Z,1068.00
2023-03-29T13:56:14.282Z,1100.00
2023-03-29T13:57:14.310Z,1171.00
2023-03-29T13:58:14.235Z,1294.00
2023-03-29T13:59:14.199Z,1487.00
2023-03-29T14:00:14.205Z,1540.00
2023-03-29T14:01:14.201Z,1599.00
2023-03-29T14:02:14.128Z,1628.00
2023-03-29T14:03:14.165Z,1679.00
2023-03-29T14:04:14.024Z,1713.00
2023-03-29T14:05:13.968Z,1754.00
2023-03-29T14:06:13.933Z,1789.00
2023-03-29T14:07:13.959Z,1855.00
2023-03-29T14:08:13.915Z,1907.00
2023-03-29T14:09:13.854Z,1933.00
2023-03-29T14:10:13.832Z,1909.00
2023-03-29T14:11:13.772Z,1935.00
2023-03-29T14:12:13.734Z,1968.00
2023-03-29T14:13:13.714Z,1997.00
2023-03-29T14:14:13.680Z,2039.00
2023-03-29T14:15:13.912Z,2185.00
2023-03-29T14:16:13.702Z,2118.00
2023-03-29T14:17:13.748Z,2181.00
2023-03-29T14:18:13.708Z,2212.00
2023-03-29T14:19:13.695Z,2237.00
2023-03-29T14:20:13.725Z,2252.00
2023-03-29T14:21:13.698Z,2254.00
2023-03-29T14:22:13.702Z,2242.00
2023-03-29T14:23:15.645Z,2255.00
2023-03-29T14:24:13.749Z,2248.00
2023-03-29T14:25:13.762Z,2229.00
2023-03-29T14:26:13.776Z,2197.00
2023-03-29T14:27:13.803Z,2190.00
2023-03-29T14:28:13.839Z,2180.00
2023-03-29T14:29:13.850Z,2144.00
2023-03-29T14:30:13.852Z,2146.00
2023-03-29T14:31:13.873Z,2146.00
2023-03-29T14:32:13.866Z,2136.00
2023-03-29T14:33:13.777Z,2132.00
2023-03-29T14:34:13.741Z,2112.00
2023-03-29T14:35:13.743Z,2096.00
2023-03-29T14:36:13.782Z,2075.00
2023-03-29T14:37:13.690Z,2046.00
2023-03-29T14:38:13.686Z,2030.00
2023-03-29T14:39:13.632Z,1999.00
2023-03-29T14:40:13.638Z,1980.00
2023-03-29T14:41:13.682Z,1958.00
2023-03-29T14:42:13.721Z,1931.00
2023-03-29T14:43:13.777Z,1936.00
2023-03-29T14:44:13.802Z,1926.00
2023-03-29T14:45:13.844Z,1889.00
2023-03-29T14:46:13.927Z,1883.00
2023-03-29T14:47:13.928Z,1867.00
2023-03-29T14:48:13.987Z,1856.00
2023-03-29T14:49:14.015Z,1824.00
2023-03-29T14:50:14.071Z,1826.00
2023-03-29T14:51:14.108Z,1834.00
2023-03-29T14:52:14.150Z,1845.00
2023-03-29T14:53:14.218Z,1832.00
2023-03-29T14:54:14.241Z,1842.00
2023-03-29T14:55:14.289Z,1836.00
2023-03-29T14:56:14.325Z,1828.00
2023-03-29T14:57:14.432Z,1803.00
2023-03-29T14:58:14.416Z,1818.00
2023-03-29T14:59:14.456Z,1809.00
2023-03-29T15:00:14.523Z,1806.00
2023-03-29T15:01:14.569Z,1812.00
2023-03-29T15:02:14.570Z,1809.00
2023-03-29T15:03:14.760Z,1808.00
2023-03-29T15:04:14.588Z,1810.00
2023-03-29T15:05:14.586Z,1796.00
2023-03-29T15:06:14.599Z,1799.00
2023-03-29T15:07:14.650Z,1797.00
2023-03-29T15:08:14.713Z,1808.00
2023-03-29T15:09:14.752Z,1817.00
2023-03-29T15:10:14.817Z,1793.00
2023-03-29T15:11:14.865Z,1811.00
2023-03-29T15:12:14.908Z,1793.00
2023-03-29T15:13:14.953Z,1801.00
2023-03-29T15:14:14.953Z,1786.00
2023-03-29T15:15:15.094Z,1810.00
2023-03-29T15:16:15.104Z,1785.00
2023-03-29T15:17:15.092Z,1810.00
2023-03-29T15:18:15.173Z,1794.00
2023-03-29T15:19:15.184Z,1799.00
2023-03-29T15:20:15.186Z,1803.00
2023-03-29T15:21:15.170Z,1810.00
2023-03-29T15:22:15.188Z,1783.00
2023-03-29T15:23:15.220Z,1792.00
2023-03-29T15:24:15.264Z,1778.00
2023-03-29T15:25:15.322Z,1795.00
2023-03-29T15:26:15.369Z,1793.00
2023-03-29T15:27:15.406Z,1786.00
2023-03-29T15:28:15.443Z,1778.00
2023-03-29T15:29:15.461Z,1787.00
2023-03-29T15:30:15.487Z,1777.00
2023-03-29T15:31:15.524Z,1777.00
2023-03-29T15:32:15.468Z,1769.00
2023-03-29T15:33:15.495Z,1762.00
2023-03-29T15:34:15.438Z,1766.00
2023-03-29T15:35:15.460Z,1767.00
2023-03-29T15:36:15.446Z,1767.00
2023-03-29T15:37:15.412Z,1769.00
2023-03-29T15:38:15.410Z,1770.00
2023-03-29T15:39:15.439Z,1769.00
2023-03-29T15:40:16.309Z,1753.00
2023-03-29T15:41:15.390Z,1766.00
2023-03-29T15:42:15.306Z,1746.00
2023-03-29T15:43:15.270Z,1759.00
2023-03-29T15:44:15.264Z,1740.00
2023-03-29T15:45:15.224Z,1734.00
2023-03-29T15:46:15.249Z,1740.00
2023-03-29T15:47:15.188Z,1734.00
2023-03-29T15:48:15.171Z,1743.00
2023-03-29T15:49:15.152Z,1741.00
2023-03-29T15:50:15.148Z,1747.00
2023-03-29T15:51:15.113Z,1738.00
2023-03-29T15:52:15.099Z,1732.00
2023-03-29T15:53:15.874Z,1736.00
2023-03-29T15:54:15.085Z,1710.00
2023-03-29T15:55:15.043Z,1730.00
2023-03-29T15:56:15.048Z,1723.00
2023-03-29T15:57:15.090Z,1705.00
2023-03-29T15:58:15.119Z,1711.00
2023-03-29T15:59:15.036Z,1700.00
2023-03-29T16:00:14.947Z,1721.00
2023-03-29T16:01:15.020Z,1711.00
2023-03-29T16:02:14.970Z,1692.00
2023-03-29T16:03:14.966Z,1704.00
2023-03-29T16:04:14.915Z,1702.00
2023-03-29T16:05:14.884Z,1703.00
2023-03-29T16:06:14.871Z,1700.00
2023-03-29T16:07:14.856Z,1700.00
2023-03-29T16:08:14.889Z,1692.00
2023-03-29T16:09:14.830Z,1683.00
2023-03-29T16:10:14.829Z,1694.00
2023-03-29T16:11:14.807Z,1680.00
2023-03-29T16:12:14.781Z,1689.00
2023-03-29T16:13:14.776Z,1690.00
2023-03-29T16:14:14.787Z,1676.00